TimeEST,TemperatureF,Dew PointF,Humidity,Sea Level PressureIn,VisibilityMPH,Wind Direction,Wind SpeedMPH,Gust SpeedMPH,PrecipitationIn,Events,Conditions,WindDirDegrees,DateUTC
12:53 AM,66.0,64.9,96,30.10,10.0,WNW,3.5,-,N/A,,Mostly Cloudy,300,2013-01-20 05:53:00
1:53 AM,64.9,64.0,97,30.09,10.0,WNW,3.5,-,N/A,,Mostly Cloudy,290,2013-01-20 06:53:00
2:21 AM,64.4,64.4,100,30.08,2.0,Calm,Calm,-,N/A,,Mostly Cloudy,0,2013-01-20 07:21:00
2:53 AM,64.9,64.0,97,30.07,3.0,WNW,3.5,-,N/A,,Mostly Cloudy,300,2013-01-20 07:53:00
3:33 AM,64.4,64.4,100,30.07,2.5,Calm,Calm,-,N/A,,Mostly Cloudy,0,2013-01-20 08:33:00
3:53 AM,64.0,63.0,96,30.07,2.0,Calm,Calm,-,N/A,,Mostly Cloudy,0,2013-01-20 08:53:00
4:31 AM,62.6,62.6,100,30.08,0.5,WNW,4.6,-,N/A,Fog,Fog,300,2013-01-20 09:31:00
4:53 AM,62.6,62.6,100,30.07,0.5,NW,6.9,-,N/A,Fog,Fog,320,2013-01-20 09:53:00
5:29 AM,64.4,64.4,100,30.08,3.0,NNW,5.8,-,N/A,,Mostly Cloudy,330,2013-01-20 10:29:00
5:53 AM,64.0,64.0,100,30.09,10.0,NW,5.8,-,N/A,,Mostly Cloudy,320,2013-01-20 10:53:00
6:53 AM,64.0,63.0,96,30.10,9.0,WNW,3.5,-,N/A,,Mostly Cloudy,290,2013-01-20 11:53:00
7:53 AM,64.9,64.0,97,30.11,10.0,NNW,4.6,-,N/A,,Mostly Cloudy,330,2013-01-20 12:53:00
8:53 AM,69.1,66.0,90,30.14,10.0,NW,3.5,-,N/A,,Scattered Clouds,320,2013-01-20 13:53:00
9:53 AM,73.9,66.9,79,30.14,10.0,NW,4.6,-,N/A,,Scattered Clouds,320,2013-01-20 14:53:00
10:53 AM,75.9,66.9,74,30.13,10.0,NNW,5.8,-,N/A,,Scattered Clouds,340,2013-01-20 15:53:00
11:53 AM,78.1,64.9,64,30.09,10.0,NNW,3.5,-,N/A,,Scattered Clouds,340,2013-01-20 16:53:00
12:53 PM,77.0,66.0,69,30.06,10.0,ENE,9.2,-,N/A,,Mostly Cloudy,60,2013-01-20 17:53:00
1:53 PM,77.0,64.9,66,30.04,10.0,NNE,8.1,-,N/A,,Mostly Cloudy,30,2013-01-20 18:53:00
2:53 PM,77.0,64.9,66,30.02,10.0,NNE,9.2,-,N/A,,Mostly Cloudy,30,2013-01-20 19:53:00
3:53 PM,73.9,64.0,71,30.02,10.0,North,12.7,-,N/A,,Mostly Cloudy,10,2013-01-20 20:53:00
4:53 PM,73.9,64.0,71,30.04,10.0,NNE,10.4,-,0.00,,Mostly Cloudy,20,2013-01-20 21:53:00
5:53 PM,73.0,64.9,76,30.04,10.0,North,5.8,-,N/A,,Mostly Cloudy,10,2013-01-20 22:53:00
6:53 PM,73.9,64.0,71,30.04,10.0,NNE,6.9,-,N/A,,Mostly Cloudy,20,2013-01-20 23:53:00
7:53 PM,73.9,64.0,71,30.05,10.0,NNE,6.9,-,N/A,,Mostly Cloudy,20,2013-01-21 00:53:00
8:53 PM,73.9,64.0,71,30.05,10.0,NE,8.1,-,N/A,,Overcast,50,2013-01-21 01:53:00
9:53 PM,73.9,64.0,71,30.06,10.0,ENE,10.4,-,N/A,,Overcast,60,2013-01-21 02:53:00
10:53 PM,73.0,64.0,73,30.06,10.0,NE,8.1,-,N/A,,Overcast,50,2013-01-21 03:53:00
11:53 PM,73.9,64.0,71,30.05,10.0,ENE,8.1,-,N/A,,Overcast,70,2013-01-21 04:53:00